メインページ
METAR-TAF:

METAR-TAF

空港 :

Cold Lake, アルバータ州, カナダ

緯度: 54-25N, 経度: 110-17W, 海抜: 541m

現時点の気象観測

当レポートは34分前の16:20(UTC)に作成
北東の風 8kt
気温 14°C
湿度 94%
気圧 1005 hPa
視程: 16.1km
高度5000ftの千切れ雲あり
高度10000ftの千切れ雲あり

METAR: CYOD 191620Z 05008KT 10SM BKN050 BKN100 14/13 A2969 RMK SC5AC2 SLP062

時間: 10:54 (16:54 UTC)

予報

当レポートは2時間24分前の14:30(UTC)に作成
予報は19日の 15時(UTC)から 20日の 12時(UTC)まで有効
の風 10kt
視程: 10km
高度4000ftの千切れ雲あり
高度24000ftの千切れ雲あり
19日の 15時(UTC)から 19日の 24時(UTC)まで一時的に
視程: 8.0km
弱いにわか雨, 靄
確率 30%
19日の 18時(UTC)から 19日の 24時(UTC)まで
変向風 15kt、最大30ktの突風を伴う
視程: 3.2km
高度3000ftの曇り, 積乱雲.
激しい雷雨, 雨, 靄
20日の 0000時(UTC)から
の風 8kt
視程: 9.7km
高度1500ftの曇り
小雨, 靄
20日の 0200時(UTC)から
東/南東の風 12kt
視程: 10km
高度2500ftの雲はほとんどない
高度8000ftの千切れ雲あり
高度20000ftの千切れ雲あり
20日の 0900時(UTC)から
変向風 3kt
視程: 9.7km
高度12000ftの千切れ雲あり
高度20000ftの千切れ雲あり
確率 40%
20日の 09時(UTC)から 20日の 12時(UTC)まで
視程: 0.8km

TAF: CYOD 191430Z 1915/2012 01010KT P6SM BKN040 BKN240 TEMPO 1915/1924 5SM -SHRA BR PROB30 1918/1924 VRB15G30KT 2SM TSRA BR OVC030CB FM200000 09008KT 6SM -RA BR OVC015 FM200200 12012KT P6SM FEW025 BKN080 BKN200 FM200900 VRB03KT 6SM BR BKN120 BKN200 PROB40 2009/2012 1/2SM FG RMK NXT FCST BY 191800Z

4,000以上の空港の気象観測と天気予報(METAR報とTAF報)

利用可能な観測所は地図上に黄色い丸と赤い丸で示す。

丸の上にカーソルを重ねると観測所名を参照できる。

次にクリックすると気象観測と天気予報を参照できる。

マップの切り替え:黒色「×」印の緑ボタンをクリックして拡大、「-」印の緑ボタンをクリックして縮小、緑色の三角印をクリックして隣りの地図に切り替え


METAR-TAF: